Time;durP1;ratioP1;P1;durP2;ratioP2;P2;SDS_P1;SDS_P2;PMS_P1;PMS_P2;Temp;Humidity;BMP_temperature;BMP_pressure;BME280_temperature;BME280_humidity;BME280_pressure;Samples;Min_cycle;Max_cycle;Signal;HPM_P1;HPM_P2
2022/06/20 00:00:51;;;;;;;;;43.50;36.00;;;;;;;;4960248;28;45511;-63
2022/06/20 00:03:22;;;;;;;;;45.25;37.75;;;;;;;;4960459;28;45491;-64
2022/06/20 00:05:48;;;;;;;;;39.00;35.25;;;;;;;;4960190;28;45564;-64
2022/06/20 00:08:13;;;;;;;;;43.25;35.00;;;;;;;;4955308;28;47418;-64
2022/06/20 00:10:39;;;;;;;;;42.00;36.00;;;;;;;;4957668;28;45998;-64
2022/06/20 00:13:05;;;;;;;;;39.75;35.25;;;;;;;;4970116;28;45632;-63
2022/06/20 00:15:33;;;;;;;;;45.50;37.75;;;;;;;;4971552;28;45668;-64
2022/06/20 00:17:59;;;;;;;;;40.75;37.25;;;;;;;;4971663;28;45415;-65
2022/06/20 00:20:25;;;;;;;;;47.75;39.00;;;;;;;;5002805;28;47674;-66
2022/06/20 00:22:50;;;;;;;;;43.75;37.50;;;;;;;;4972128;28;45807;-65
2022/06/20 00:25:19;;;;;;;;;48.75;39.50;;;;;;;;4971335;28;45740;-65
2022/06/20 00:27:45;;;;;;;;;43.25;35.25;;;;;;;;4986729;28;45610;-66
2022/06/20 00:30:12;;;;;;;;;42.00;36.50;;;;;;;;4970934;28;46228;-65
2022/06/20 00:32:37;;;;;;;;;47.75;38.00;;;;;;;;4971182;28;45510;-65
2022/06/20 00:35:02;;;;;;;;;44.00;37.50;;;;;;;;4971217;28;45564;-63
2022/06/20 00:37:28;;;;;;;;;49.50;41.25;;;;;;;;4971649;28;45384;-64
2022/06/20 00:39:53;;;;;;;;;45.50;40.25;;;;;;;;4970705;28;45700;-63
2022/06/20 00:42:19;;;;;;;;;44.75;37.25;;;;;;;;4971173;28;45699;-62
2022/06/20 00:44:49;;;;;;;;;49.00;40.00;;;;;;;;4970924;28;45465;-63
2022/06/20 00:47:20;;;;;;;;;46.50;39.25;;;;;;;;4970971;28;45758;-64
2022/06/20 00:49:50;;;;;;;;;44.00;36.75;;;;;;;;4971149;28;46466;-64
2022/06/20 00:52:21;;;;;;;;;49.25;39.50;;;;;;;;4969547;28;45605;-65
2022/06/20 00:54:49;;;;;;;;;47.00;39.75;;;;;;;;4970715;28;45621;-65
2022/06/20 00:57:18;;;;;;;;;44.00;37.75;;;;;;;;4970637;28;45922;-64
2022/06/20 00:59:46;;;;;;;;;52.00;43.00;;;;;;;;4970559;28;46378;-65
2022/06/20 01:02:16;;;;;;;;;47.50;39.75;;;;;;;;4970384;28;45736;-64
2022/06/20 01:04:44;;;;;;;;;37.00;33.50;;;;;;;;4987889;28;45531;-65
2022/06/20 01:07:15;;;;;;;;;46.25;39.50;;;;;;;;4990723;28;45450;-64
2022/06/20 01:09:43;;;;;;;;;42.50;35.75;;;;;;;;4989723;28;47832;-66
2022/06/20 01:12:12;;;;;;;;;42.50;35.75;;;;;;;;4961397;28;45573;-66
2022/06/20 01:14:41;;;;;;;;;39.50;35.25;;;;;;;;4970499;28;45982;-64
2022/06/20 01:17:12;;;;;;;;;46.50;38.75;;;;;;;;4970491;28;45530;-64
2022/06/20 01:19:40;;;;;;;;;50.00;40.50;;;;;;;;4970933;28;46777;-65
2022/06/20 01:22:14;;;;;;;;;45.50;38.75;;;;;;;;4970274;28;45876;-64
2022/06/20 01:24:47;;;;;;;;;44.50;38.50;;;;;;;;4970070;28;45755;-64
2022/06/20 01:27:12;;;;;;;;;38.00;35.50;;;;;;;;4969889;28;45542;-64
2022/06/20 01:29:38;;;;;;;;;42.25;38.00;;;;;;;;4970177;28;45679;-65
2022/06/20 01:32:04;;;;;;;;;47.00;39.25;;;;;;;;4969353;28;45674;-64
2022/06/20 01:34:31;;;;;;;;;43.50;35.75;;;;;;;;4969974;28;45579;-64
2022/06/20 01:39:42;;;;;;;;;40.00;36.50;;;;;;;;4969691;28;45619;-63
2022/06/20 01:42:22;;;;;;;;;44.50;37.25;;;;;;;;5001635;28;45669;-64
2022/06/20 01:44:56;;;;;;;;;40.25;35.25;;;;;;;;4969995;28;45978;-64
2022/06/20 01:47:21;;;;;;;;;50.00;41.25;;;;;;;;4955037;28;45839;-64
2022/06/20 01:49:48;;;;;;;;;40.00;36.00;;;;;;;;4970343;28;45627;-64
2022/06/20 01:52:19;;;;;;;;;38.75;34.25;;;;;;;;4969856;28;45751;-64
2022/06/20 01:54:46;;;;;;;;;42.25;37.75;;;;;;;;4969726;28;45415;-64
2022/06/20 01:57:12;;;;;;;;;34.00;31.25;;;;;;;;4969775;28;47812;-64
2022/06/20 01:59:56;;;;;;;;;39.50;35.25;;;;;;;;4969655;28;45744;-63
2022/06/20 02:02:21;;;;;;;;;41.75;36.00;;;;;;;;4985539;28;45664;-64
2022/06/20 02:04:46;;;;;;;;;30.75;29.75;;;;;;;;4970489;28;45937;-64
2022/06/20 02:07:12;;;;;;;;;42.25;32.25;;;;;;;;4990283;28;46018;-64
2022/06/20 02:09:38;;;;;;;;;35.00;32.00;;;;;;;;4963310;28;46277;-65
2022/06/20 02:12:05;;;;;;;;;35.00;31.75;;;;;;;;4962944;28;45434;-66
2022/06/20 02:14:30;;;;;;;;;30.50;30.00;;;;;;;;4961975;28;45518;-66
2022/06/20 02:16:58;;;;;;;;;36.75;32.75;;;;;;;;4992064;28;45350;-65
2022/06/20 02:19:29;;;;;;;;;37.00;33.00;;;;;;;;4968576;28;46092;-68
2022/06/20 02:21:58;;;;;;;;;34.25;30.25;;;;;;;;4967440;28;45558;-66
2022/06/20 02:24:24;;;;;;;;;32.50;31.50;;;;;;;;4965491;28;45411;-68
2022/06/20 02:26:52;;;;;;;;;33.50;31.50;;;;;;;;5004142;28;45631;-67
2022/06/20 02:29:26;;;;;;;;;31.00;30.00;;;;;;;;4972244;28;45474;-67
2022/06/20 02:32:00;;;;;;;;;36.75;33.00;;;;;;;;4972514;28;45546;-68
2022/06/20 02:34:28;;;;;;;;;33.25;30.50;;;;;;;;4972658;28;45639;-67
2022/06/20 02:36:54;;;;;;;;;34.00;30.25;;;;;;;;4966464;28;45486;-68
2022/06/20 02:39:20;;;;;;;;;34.50;31.50;;;;;;;;4972384;28;46169;-66
2022/06/20 02:41:48;;;;;;;;;31.00;30.75;;;;;;;;5001000;28;46247;-67
2022/06/20 02:44:17;;;;;;;;;28.50;28.00;;;;;;;;4968089;28;45509;-66
2022/06/20 02:46:44;;;;;;;;;28.75;28.75;;;;;;;;4972858;28;45724;-66
2022/06/20 02:49:10;;;;;;;;;34.50;32.75;;;;;;;;4972158;28;45969;-66
2022/06/20 02:51:38;;;;;;;;;30.25;28.75;;;;;;;;4973985;28;45819;-65
2022/06/20 02:54:05;;;;;;;;;25.75;24.25;;;;;;;;4964416;28;45713;-65
2022/06/20 02:56:33;;;;;;;;;31.75;29.00;;;;;;;;5002469;28;46019;-65
2022/06/20 02:59:02;;;;;;;;;23.00;22.50;;;;;;;;4972145;28;46419;-65
2022/06/20 03:01:34;;;;;;;;;29.25;29.25;;;;;;;;4971958;28;45527;-65
2022/06/20 03:04:00;;;;;;;;;25.00;23.75;;;;;;;;4962202;28;45506;-65
2022/06/20 03:06:31;;;;;;;;;31.50;30.25;;;;;;;;4970974;28;46077;-65
2022/06/20 03:08:57;;;;;;;;;36.25;32.50;;;;;;;;4966495;28;46150;-64
2022/06/20 03:11:23;;;;;;;;;32.50;30.75;;;;;;;;4968339;28;45411;-64
2022/06/20 03:13:49;;;;;;;;;30.25;29.50;;;;;;;;4972536;28;45427;-65
2022/06/20 03:16:14;;;;;;;;;35.25;31.50;;;;;;;;4972170;28;45766;-64
2022/06/20 03:18:41;;;;;;;;;27.25;24.25;;;;;;;;5002948;28;46592;-64
2022/06/20 03:21:07;;;;;;;;;33.25;29.50;;;;;;;;4972548;28;45475;-66
2022/06/20 03:23:33;;;;;;;;;35.50;31.75;;;;;;;;4971063;28;45617;-65
2022/06/20 03:25:59;;;;;;;;;33.25;31.00;;;;;;;;4994053;28;45827;-62
2022/06/20 03:28:25;;;;;;;;;39.25;35.50;;;;;;;;5002378;28;46508;-63
2022/06/20 03:30:51;;;;;;;;;39.00;36.50;;;;;;;;4964105;28;45974;-64
2022/06/20 03:33:17;;;;;;;;;41.00;35.25;;;;;;;;4960306;28;45968;-64
2022/06/20 03:35:55;;;;;;;;;39.75;34.75;;;;;;;;4959679;28;45525;-64
2022/06/20 03:38:21;;;;;;;;;42.25;36.50;;;;;;;;4971895;28;46570;-63
2022/06/20 03:40:47;;;;;;;;;32.75;30.25;;;;;;;;4957182;28;45546;-63
2022/06/20 03:43:15;;;;;;;;;39.25;36.25;;;;;;;;4959344;28;45460;-64
2022/06/20 03:45:43;;;;;;;;;41.25;34.50;;;;;;;;4959684;28;45748;-63
2022/06/20 03:48:10;;;;;;;;;39.75;35.25;;;;;;;;4959414;28;46727;-63
2022/06/20 03:50:38;;;;;;;;;43.25;37.25;;;;;;;;4958452;28;45607;-64
2022/06/20 03:53:17;;;;;;;;;39.25;34.50;;;;;;;;4956368;28;45748;-63
2022/06/20 03:55:46;;;;;;;;;43.00;36.25;;;;;;;;4957718;28;45494;-63
2022/06/20 03:58:17;;;;;;;;;41.75;35.00;;;;;;;;4960475;28;45557;-63
2022/06/20 04:00:42;;;;;;;;;43.50;36.25;;;;;;;;4991751;28;46208;-64
2022/06/20 04:03:15;;;;;;;;;40.25;36.00;;;;;;;;4962784;28;45609;-65
2022/06/20 04:05:52;;;;;;;;;35.50;33.00;;;;;;;;5003149;28;45443;-64
2022/06/20 04:10:57;;;;;;;;;40.00;36.00;;;;;;;;4954046;28;46382;-64
2022/06/20 04:11:11;;;;;;;;;36.00;32.25;;;;;;;;4971157;28;45537;-65
2022/06/20 04:13:40;;;;;;;;;35.75;33.00;;;;;;;;4967271;28;45840;-64
2022/06/20 04:16:05;;;;;;;;;33.25;32.00;;;;;;;;4968835;28;45494;-64
2022/06/20 04:18:36;;;;;;;;;35.00;31.75;;;;;;;;4970948;28;45629;-64
2022/06/20 04:21:10;;;;;;;;;35.00;33.50;;;;;;;;4971039;28;45458;-64
2022/06/20 04:23:38;;;;;;;;;40.25;35.25;;;;;;;;4971332;28;46010;-65
2022/06/20 04:26:17;;;;;;;;;34.00;30.50;;;;;;;;4971475;28;45719;-65
2022/06/20 04:28:54;;;;;;;;;29.00;29.00;;;;;;;;4971305;28;46424;-64
2022/06/20 04:31:22;;;;;;;;;29.25;29.25;;;;;;;;4971018;28;45447;-64
2022/06/20 04:33:53;;;;;;;;;34.50;32.50;;;;;;;;4970680;28;45628;-64
2022/06/20 04:36:22;;;;;;;;;32.75;30.50;;;;;;;;4998914;28;45829;-64
2022/06/20 04:38:51;;;;;;;;;32.75;29.25;;;;;;;;4990437;28;48849;-65
2022/06/20 04:41:20;;;;;;;;;31.00;29.25;;;;;;;;4970758;28;45888;-64
2022/06/20 04:44:01;;;;;;;;;35.00;30.50;;;;;;;;4971370;28;45728;-64
2022/06/20 04:46:26;;;;;;;;;34.75;30.50;;;;;;;;4970472;28;45652;-64
2022/06/20 04:48:52;;;;;;;;;38.50;33.50;;;;;;;;4970604;28;45749;-64
2022/06/20 04:51:20;;;;;;;;;33.50;31.25;;;;;;;;4970535;28;45874;-65
2022/06/20 04:53:48;;;;;;;;;33.25;32.25;;;;;;;;4970891;28;45457;-65
2022/06/20 04:56:14;;;;;;;;;34.25;32.00;;;;;;;;4969427;28;45467;-65
2022/06/20 04:58:48;;;;;;;;;35.25;32.50;;;;;;;;4970803;28;45672;-65
2022/06/20 05:01:14;;;;;;;;;30.50;29.50;;;;;;;;4970191;28;45398;-65
2022/06/20 05:03:42;;;;;;;;;29.25;29.25;;;;;;;;4970548;28;45430;-64
2022/06/20 05:06:12;;;;;;;;;37.00;32.00;;;;;;;;4970479;28;45515;-64
2022/06/20 05:08:39;;;;;;;;;27.00;27.00;;;;;;;;4970349;28;45762;-65
2022/06/20 05:11:08;;;;;;;;;35.00;28.50;;;;;;;;4970483;28;46012;-65
2022/06/20 05:13:43;;;;;;;;;27.50;26.25;;;;;;;;4970805;28;45459;-65
2022/06/20 05:16:18;;;;;;;;;31.75;28.50;;;;;;;;4968364;28;45581;-65
2022/06/20 05:18:45;;;;;;;;;25.25;23.50;;;;;;;;4978398;28;48950;-65
2022/06/20 05:21:13;;;;;;;;;26.25;24.50;;;;;;;;4998461;28;45769;-65
2022/06/20 05:23:46;;;;;;;;;26.25;25.00;;;;;;;;4957291;28;45529;-65
2022/06/20 05:26:17;;;;;;;;;26.50;25.25;;;;;;;;4953701;28;45620;-65
2022/06/20 05:28:46;;;;;;;;;24.00;23.25;;;;;;;;4983466;28;47611;-64
2022/06/20 05:31:13;;;;;;;;;22.75;22.25;;;;;;;;4969773;28;45581;-63
2022/06/20 05:33:51;;;;;;;;;25.50;24.50;;;;;;;;4969356;28;45877;-63
2022/06/20 05:36:25;;;;;;;;;30.25;23.50;;;;;;;;4970648;28;45356;-64
2022/06/20 05:39:09;;;;;;;;;22.50;20.50;;;;;;;;4974097;28;46626;-65
2022/06/20 05:41:35;;;;;;;;;20.00;18.50;;;;;;;;4969626;28;45478;-64
2022/06/20 05:44:00;;;;;;;;;18.00;17.75;;;;;;;;4996050;28;45362;-63
2022/06/20 05:46:42;;;;;;;;;21.75;21.75;;;;;;;;4956480;28;45503;-64
2022/06/20 05:49:12;;;;;;;;;17.50;16.00;;;;;;;;4967351;28;46554;-65
2022/06/20 05:51:39;;;;;;;;;23.00;22.50;;;;;;;;4968964;28;45549;-64
2022/06/20 05:54:25;;;;;;;;;18.25;18.25;;;;;;;;4973593;28;45551;-64
2022/06/20 05:56:53;;;;;;;;;19.50;19.00;;;;;;;;5003605;28;45707;-64
2022/06/20 05:59:28;;;;;;;;;20.00;20.00;;;;;;;;5003596;28;47984;-64
2022/06/20 06:01:55;;;;;;;;;21.25;20.25;;;;;;;;4975377;28;45628;-64
2022/06/20 06:04:33;;;;;;;;;17.50;16.50;;;;;;;;4977309;28;45491;-64
2022/06/20 06:07:05;;;;;;;;;20.75;19.50;;;;;;;;5007697;28;45574;-64
2022/06/20 06:09:49;;;;;;;;;22.25;16.50;;;;;;;;4960423;28;45857;-64
2022/06/20 06:12:18;;;;;;;;;17.25;16.50;;;;;;;;4992921;28;45722;-63
2022/06/20 06:14:46;;;;;;;;;14.50;13.00;;;;;;;;4996015;28;45623;-63
2022/06/20 06:17:30;;;;;;;;;20.50;17.50;;;;;;;;4963146;28;45557;-65
2022/06/20 06:19:57;;;;;;;;;13.00;13.00;;;;;;;;4962941;28;46640;-64
2022/06/20 06:22:22;;;;;;;;;15.25;15.25;;;;;;;;4995795;28;46264;-64
2022/06/20 06:24:48;;;;;;;;;20.75;19.50;;;;;;;;4960094;28;45467;-64
2022/06/20 06:27:22;;;;;;;;;14.25;14.00;;;;;;;;4961475;28;45855;-65
2022/06/20 06:29:51;;;;;;;;;18.00;15.25;;;;;;;;4964562;28;46839;-64
2022/06/20 06:32:19;;;;;;;;;14.75;14.75;;;;;;;;4964472;28;45843;-64
2022/06/20 06:34:47;;;;;;;;;16.50;14.50;;;;;;;;4996117;28;45429;-64
2022/06/20 06:37:17;;;;;;;;;15.50;15.25;;;;;;;;4963217;28;45561;-64
2022/06/20 06:40:00;;;;;;;;;18.50;17.50;;;;;;;;4975569;28;45456;-64
2022/06/20 06:42:27;;;;;;;;;12.75;12.75;;;;;;;;4974258;28;45683;-65
2022/06/20 06:44:54;;;;;;;;;14.50;13.75;;;;;;;;5007199;28;45837;-66
2022/06/20 06:47:26;;;;;;;;;16.25;16.25;;;;;;;;5006494;28;45545;-66
2022/06/20 06:49:55;;;;;;;;;12.25;11.50;;;;;;;;5006305;28;47498;-65
2022/06/20 06:52:25;;;;;;;;;16.50;15.50;;;;;;;;5007226;28;45705;-65
2022/06/20 06:54:53;;;;;;;;;14.50;14.25;;;;;;;;4975625;28;45465;-65
2022/06/20 06:57:24;;;;;;;;;15.50;14.25;;;;;;;;4976207;28;45554;-64
2022/06/20 07:00:05;;;;;;;;;15.75;14.00;;;;;;;;4975661;28;47421;-64
2022/06/20 07:02:42;;;;;;;;;15.50;15.50;;;;;;;;4975426;28;45508;-64
2022/06/20 07:05:14;;;;;;;;;15.75;14.50;;;;;;;;4967745;28;45663;-64
2022/06/20 07:07:43;;;;;;;;;11.50;11.50;;;;;;;;5004300;28;45557;-64
2022/06/20 07:10:16;;;;;;;;;16.50;14.25;;;;;;;;4972058;28;45959;-66
2022/06/20 07:12:48;;;;;;;;;18.75;18.75;;;;;;;;4986898;28;45588;-64
2022/06/20 07:15:21;;;;;;;;;16.50;16.50;;;;;;;;4971228;28;45470;-65
2022/06/20 07:18:04;;;;;;;;;18.00;16.50;;;;;;;;4973540;28;45613;-65
2022/06/20 07:20:39;;;;;;;;;20.50;18.75;;;;;;;;5000915;28;46431;-64
2022/06/20 07:23:06;;;;;;;;;21.25;20.00;;;;;;;;4955304;28;45589;-64
2022/06/20 07:25:35;;;;;;;;;17.25;17.00;;;;;;;;4957123;28;45469;-64
2022/06/20 07:28:04;;;;;;;;;21.75;19.00;;;;;;;;4990829;28;45923;-66
2022/06/20 07:30:33;;;;;;;;;20.50;19.50;;;;;;;;4959761;28;45454;-65
2022/06/20 07:33:01;;;;;;;;;20.25;18.75;;;;;;;;4957006;28;46175;-64
2022/06/20 07:35:32;;;;;;;;;22.00;19.00;;;;;;;;4971263;28;45525;-64
2022/06/20 07:38:03;;;;;;;;;17.25;17.25;;;;;;;;4987520;28;45846;-64
2022/06/20 07:40:34;;;;;;;;;21.25;20.00;;;;;;;;4971660;28;45802;-64
2022/06/20 07:43:10;;;;;;;;;20.50;20.00;;;;;;;;4993903;28;45587;-64
2022/06/20 07:45:40;;;;;;;;;20.75;18.00;;;;;;;;4991819;28;45429;-64
2022/06/20 07:48:09;;;;;;;;;21.50;21.50;;;;;;;;4954828;28;45456;-65
2022/06/20 07:50:55;;;;;;;;;25.50;20.25;;;;;;;;4968365;28;45814;-64
2022/06/20 07:53:23;;;;;;;;;22.00;19.00;;;;;;;;4971512;28;45532;-65
2022/06/20 07:55:50;;;;;;;;;28.00;25.50;;;;;;;;4964734;28;45427;-65
2022/06/20 07:58:22;;;;;;;;;25.50;23.25;;;;;;;;4971297;28;45749;-65
2022/06/20 08:00:49;;;;;;;;;28.25;27.00;;;;;;;;4970446;28;46698;-65
2022/06/20 08:03:17;;;;;;;;;26.00;24.75;;;;;;;;4970489;28;45509;-65
2022/06/20 08:05:53;;;;;;;;;22.25;20.75;;;;;;;;4970920;28;45613;-66
2022/06/20 08:08:27;;;;;;;;;20.25;20.25;;;;;;;;4971594;28;45590;-66
2022/06/20 08:10:58;;;;;;;;;21.00;19.25;;;;;;;;5003345;28;48911;-65
2022/06/20 08:13:39;;;;;;;;;20.50;19.50;;;;;;;;4970562;28;45582;-66
2022/06/20 08:16:11;;;;;;;;;18.00;16.25;;;;;;;;4971267;28;45544;-64
2022/06/20 08:18:37;;;;;;;;;17.75;16.75;;;;;;;;4970881;28;45841;-65
2022/06/20 08:21:18;;;;;;;;;20.00;19.25;;;;;;;;4971141;28;45846;-65
2022/06/20 08:23:53;;;;;;;;;18.00;17.25;;;;;;;;5002495;28;46159;-64
2022/06/20 08:26:27;;;;;;;;;19.00;17.00;;;;;;;;4971183;28;45812;-65
2022/06/20 08:28:52;;;;;;;;;17.50;17.00;;;;;;;;4966414;28;45882;-65
2022/06/20 08:31:17;;;;;;;;;20.75;18.00;;;;;;;;4971296;28;45693;-65
2022/06/20 08:34:02;;;;;;;;;21.75;20.50;;;;;;;;4970805;28;45593;-65
2022/06/20 08:36:37;;;;;;;;;21.00;19.00;;;;;;;;4971107;28;45992;-66
2022/06/20 08:39:07;;;;;;;;;11.25;10.25;;;;;;;;4971093;28;45482;-66
2022/06/20 08:42:02;;;;;;;;;14.00;13.50;;;;;;;;4970773;28;45794;-66
2022/06/20 08:44:27;;;;;;;;;23.75;19.50;;;;;;;;4931959;28;46179;-66
2022/06/20 08:47:13;;;;;;;;;17.25;17.25;;;;;;;;4948763;28;45979;-65
2022/06/20 08:49:53;;;;;;;;;17.00;15.75;;;;;;;;4948044;28;45881;-65
2022/06/20 08:52:19;;;;;;;;;20.50;18.00;;;;;;;;4948241;28;45780;-66
2022/06/20 08:54:44;;;;;;;;;20.25;15.25;;;;;;;;4947786;28;45451;-65
2022/06/20 08:57:27;;;;;;;;;19.50;18.25;;;;;;;;4948673;28;47273;-65
2022/06/20 09:00:03;;;;;;;;;21.25;19.75;;;;;;;;4948301;28;45663;-65
2022/06/20 09:02:46;;;;;;;;;19.25;19.25;;;;;;;;4948115;28;45576;-65
2022/06/20 09:05:14;;;;;;;;;17.00;16.00;;;;;;;;4948442;28;45813;-65
2022/06/20 09:07:54;;;;;;;;;19.50;19.00;;;;;;;;4948993;28;45787;-65
2022/06/20 09:10:20;;;;;;;;;19.50;17.25;;;;;;;;4948849;28;45427;-66
2022/06/20 09:12:51;;;;;;;;;17.50;16.25;;;;;;;;4947767;28;48572;-64
2022/06/20 09:15:36;;;;;;;;;19.50;19.00;;;;;;;;4948559;28;45544;-63
2022/06/20 09:18:01;;;;;;;;;18.00;18.00;;;;;;;;4948198;28;45578;-64
2022/06/20 09:20:45;;;;;;;;;13.75;13.75;;;;;;;;4955027;28;45516;-63
2022/06/20 09:23:25;;;;;;;;;23.25;21.50;;;;;;;;4969089;28;47802;-64
2022/06/20 09:26:03;;;;;;;;;22.75;19.50;;;;;;;;4967116;28;45684;-64
2022/06/20 09:28:28;;;;;;;;;19.25;17.25;;;;;;;;4970609;28;45767;-64
2022/06/20 09:30:56;;;;;;;;;23.25;21.75;;;;;;;;4969674;28;45952;-63
2022/06/20 09:33:40;;;;;;;;;20.00;17.75;;;;;;;;4970032;28;46547;-63
2022/06/20 09:36:17;;;;;;;;;17.25;17.25;;;;;;;;5001773;28;45870;-65
2022/06/20 09:38:58;;;;;;;;;18.00;18.00;;;;;;;;4970168;28;45719;-64
2022/06/20 09:41:43;;;;;;;;;17.00;16.50;;;;;;;;4955096;28;45498;-64
2022/06/20 09:44:21;;;;;;;;;19.00;19.00;;;;;;;;4970334;28;46261;-64
2022/06/20 09:47:05;;;;;;;;;22.25;18.50;;;;;;;;4970693;28;45391;-64
2022/06/20 09:49:52;;;;;;;;;17.50;17.25;;;;;;;;4970678;28;45848;-63
2022/06/20 09:52:36;;;;;;;;;18.25;17.25;;;;;;;;4990429;28;45441;-63
2022/06/20 09:55:19;;;;;;;;;18.00;17.00;;;;;;;;4967591;28;46507;-64
2022/06/20 09:57:48;;;;;;;;;19.00;17.50;;;;;;;;4994386;28;45714;-65
2022/06/20 10:00:19;;;;;;;;;18.50;16.50;;;;;;;;4961290;28;45553;-65
2022/06/20 10:02:50;;;;;;;;;18.25;16.50;;;;;;;;4969568;28;45586;-63
2022/06/20 10:05:33;;;;;;;;;19.75;19.25;;;;;;;;4969350;28;45491;-64
2022/06/20 10:08:06;;;;;;;;;19.00;18.00;;;;;;;;4969822;28;45546;-64
2022/06/20 10:10:47;;;;;;;;;23.00;21.25;;;;;;;;4981835;28;45459;-64
2022/06/20 10:13:15;;;;;;;;;20.25;19.00;;;;;;;;4968968;28;45910;-65
2022/06/20 10:15:43;;;;;;;;;14.25;14.25;;;;;;;;4969120;28;47784;-64
2022/06/20 10:18:08;;;;;;;;;17.50;17.50;;;;;;;;4969285;28;45446;-64
2022/06/20 10:20:33;;;;;;;;;17.75;17.25;;;;;;;;4969251;28;46052;-65
2022/06/20 10:23:12;;;;;;;;;14.75;13.75;;;;;;;;4969748;28;45511;-64
2022/06/20 10:25:37;;;;;;;;;18.25;17.25;;;;;;;;4983384;28;47531;-63
2022/06/20 10:28:21;;;;;;;;;12.75;12.75;;;;;;;;4969446;28;45595;-63
2022/06/20 10:31:01;;;;;;;;;15.75;13.25;;;;;;;;4969151;28;45685;-64
2022/06/20 10:33:32;;;;;;;;;13.75;12.75;;;;;;;;4968988;28;45990;-63
2022/06/20 10:36:00;;;;;;;;;16.00;13.50;;;;;;;;4969018;28;46728;-63
2022/06/20 10:38:39;;;;;;;;;16.25;15.00;;;;;;;;4969354;28;45756;-63
2022/06/20 10:41:06;;;;;;;;;13.75;12.25;;;;;;;;4969195;28;45582;-62
2022/06/20 10:43:50;;;;;;;;;16.50;14.75;;;;;;;;4972633;28;45561;-63
2022/06/20 10:46:31;;;;;;;;;20.50;18.00;;;;;;;;4972383;28;45663;-63
2022/06/20 10:48:56;;;;;;;;;12.50;12.00;;;;;;;;4971012;28;45457;-63
2022/06/20 10:51:27;;;;;;;;;15.25;14.50;;;;;;;;4972431;28;45540;-64
2022/06/20 10:53:55;;;;;;;;;14.00;13.75;;;;;;;;4972265;28;45458;-63
2022/06/20 10:56:50;;;;;;;;;16.00;13.00;;;;;;;;4956625;28;45699;-64
2022/06/20 10:59:30;;;;;;;;;13.50;11.75;;;;;;;;4970207;28;45578;-64
2022/06/20 11:02:02;;;;;;;;;12.50;12.00;;;;;;;;4972554;28;45751;-64
2022/06/20 11:04:39;;;;;;;;;8.50;6.50;;;;;;;;4972565;28;45866;-63
2022/06/20 11:07:04;;;;;;;;;16.75;13.00;;;;;;;;4993807;28;47525;-64
2022/06/20 11:09:53;;;;;;;;;10.50;10.50;;;;;;;;4996778;28;46027;-64
2022/06/20 11:12:24;;;;;;;;;10.25;10.00;;;;;;;;4969030;28;45755;-64
2022/06/20 11:14:49;;;;;;;;;19.00;14.00;;;;;;;;4971563;28;45570;-68
2022/06/20 11:17:30;;;;;;;;;17.50;14.50;;;;;;;;4971703;28;46503;-63
2022/06/20 11:20:14;;;;;;;;;17.00;13.00;;;;;;;;5003530;28;46249;-64
2022/06/20 11:22:43;;;;;;;;;14.00;13.25;;;;;;;;4989507;28;45592;-64
2022/06/20 11:25:22;;;;;;;;;16.75;13.75;;;;;;;;4991717;28;45802;-64
2022/06/20 11:27:50;;;;;;;;;12.00;12.00;;;;;;;;4967097;28;46620;-63
2022/06/20 11:30:24;;;;;;;;;15.75;14.50;;;;;;;;4971529;28;45467;-65
2022/06/20 11:32:50;;;;;;;;;13.25;11.50;;;;;;;;4971387;28;45556;-64
2022/06/20 11:35:27;;;;;;;;;12.00;11.00;;;;;;;;4971330;28;45422;-63
2022/06/20 11:38:11;;;;;;;;;7.50;7.50;;;;;;;;4968171;28;45856;-64
2022/06/20 11:40:43;;;;;;;;;9.50;8.50;;;;;;;;4971527;28;45449;-64
2022/06/20 11:43:27;;;;;;;;;10.50;10.50;;;;;;;;4971144;28;45597;-64
2022/06/20 11:45:52;;;;;;;;;12.75;11.75;;;;;;;;4971253;28;45791;-63
2022/06/20 11:48:22;;;;;;;;;14.75;13.50;;;;;;;;4971212;28;45639;-64
2022/06/20 11:51:14;;;;;;;;;13.50;11.25;;;;;;;;4971459;28;45573;-64
2022/06/20 11:53:46;;;;;;;;;13.00;11.25;;;;;;;;4957373;28;45629;-64
2022/06/20 11:56:29;;;;;;;;;15.75;12.25;;;;;;;;4971379;28;46133;-65
2022/06/20 11:59:01;;;;;;;;;8.50;6.75;;;;;;;;4971335;28;45508;-65
2022/06/20 12:01:30;;;;;;;;;16.25;13.50;;;;;;;;4971289;28;45664;-64
2022/06/20 12:03:59;;;;;;;;;10.25;9.00;;;;;;;;4971035;28;45557;-65
2022/06/20 12:06:31;;;;;;;;;11.50;10.00;;;;;;;;4970836;28;45582;-63
2022/06/20 12:09:11;;;;;;;;;12.25;10.25;;;;;;;;4970792;28;46350;-64
2022/06/20 12:11:39;;;;;;;;;13.00;12.50;;;;;;;;4971235;28;45475;-63
2022/06/20 12:14:07;;;;;;;;;11.25;10.75;;;;;;;;4971303;28;45786;-64
2022/06/20 12:16:38;;;;;;;;;10.00;10.00;;;;;;;;4971590;28;45532;-63
2022/06/20 12:24:43;;;;;;;;;11.75;10.75;;;;;;;;4971169;28;45806;-64
2022/06/20 12:27:13;;;;;;;;;12.50;10.75;;;;;;;;4970980;28;45591;-64
2022/06/20 12:29:39;;;;;;;;;9.25;9.25;;;;;;;;4970843;28;45631;-64
2022/06/20 12:32:05;;;;;;;;;12.00;8.75;;;;;;;;4969457;28;45694;-65
2022/06/20 12:34:37;;;;;;;;;10.50;9.75;;;;;;;;4989801;28;45700;-64
2022/06/20 12:37:05;;;;;;;;;13.50;12.25;;;;;;;;4968592;28;45487;-65
2022/06/20 12:39:33;;;;;;;;;11.00;9.75;;;;;;;;4970464;28;45475;-65
2022/06/20 12:42:13;;;;;;;;;13.00;12.00;;;;;;;;5002166;28;46213;-65
2022/06/20 12:44:57;;;;;;;;;10.50;9.50;;;;;;;;4971159;28;45818;-64
2022/06/20 12:47:40;;;;;;;;;10.50;10.50;;;;;;;;4955769;28;45392;-65
2022/06/20 12:50:05;;;;;;;;;9.75;9.75;;;;;;;;4971097;28;45446;-65
2022/06/20 12:52:39;;;;;;;;;9.50;8.25;;;;;;;;4971302;28;45383;-65
2022/06/20 12:55:04;;;;;;;;;11.00;9.25;;;;;;;;4993099;28;45500;-64
2022/06/20 12:57:29;;;;;;;;;10.75;10.50;;;;;;;;4964676;28;45486;-65
2022/06/20 13:00:17;;;;;;;;;7.75;7.75;;;;;;;;4970785;28;46611;-66
2022/06/20 13:03:01;;;;;;;;;9.25;8.75;;;;;;;;4958112;28;46319;-65
2022/06/20 13:05:45;;;;;;;;;9.75;9.75;;;;;;;;4954798;28;45665;-65
2022/06/20 13:08:10;;;;;;;;;9.00;8.75;;;;;;;;4971090;28;45775;-64
2022/06/20 13:10:54;;;;;;;;;7.00;7.00;;;;;;;;4971240;28;46429;-64
2022/06/20 13:13:22;;;;;;;;;8.00;8.00;;;;;;;;4970555;28;45875;-64
2022/06/20 13:15:56;;;;;;;;;7.50;7.50;;;;;;;;4970797;28;45803;-64
2022/06/20 13:18:40;;;;;;;;;9.75;8.25;;;;;;;;4998589;28;45528;-65
2022/06/20 13:21:20;;;;;;;;;11.25;9.00;;;;;;;;4960653;28;45657;-65
2022/06/20 13:23:49;;;;;;;;;9.75;9.00;;;;;;;;4970261;28;45766;-62
2022/06/20 13:26:21;;;;;;;;;8.00;7.50;;;;;;;;4970593;28;46237;-64
2022/06/20 13:28:54;;;;;;;;;11.75;10.25;;;;;;;;4971007;28;45704;-63
2022/06/20 13:31:22;;;;;;;;;7.50;6.25;;;;;;;;4970086;28;46718;-63
2022/06/20 13:33:53;;;;;;;;;13.00;11.25;;;;;;;;4969884;28;45429;-65
2022/06/20 13:36:37;;;;;;;;;9.25;9.25;;;;;;;;4970285;28;45557;-65
2022/06/20 13:39:11;;;;;;;;;7.25;7.25;;;;;;;;5001679;28;45727;-65
2022/06/20 13:41:42;;;;;;;;;10.75;10.25;;;;;;;;4970092;28;45847;-65
2022/06/20 13:44:31;;;;;;;;;10.75;10.75;;;;;;;;4970191;28;45420;-65
2022/06/20 13:46:59;;;;;;;;;10.50;9.00;;;;;;;;4970801;28;45635;-64
2022/06/20 13:49:28;;;;;;;;;8.25;8.25;;;;;;;;4970568;28;45950;-65
2022/06/20 13:52:02;;;;;;;;;10.00;8.75;;;;;;;;4969616;28;46028;-65
2022/06/20 13:54:36;;;;;;;;;12.25;9.75;;;;;;;;4969985;28;45624;-65
2022/06/20 13:57:20;;;;;;;;;11.00;11.00;;;;;;;;4970090;28;45569;-65
2022/06/20 13:59:57;;;;;;;;;11.50;10.50;;;;;;;;4970248;28;45513;-64
2022/06/20 14:02:34;;;;;;;;;9.50;9.50;;;;;;;;4954515;28;46622;-64
2022/06/20 14:05:07;;;;;;;;;11.25;10.00;;;;;;;;5001762;28;46815;-63
2022/06/20 14:07:32;;;;;;;;;9.00;9.00;;;;;;;;4970454;28;45530;-64
2022/06/20 14:09:59;;;;;;;;;7.00;7.00;;;;;;;;4969723;28;45601;-63
2022/06/20 14:12:24;;;;;;;;;8.25;8.25;;;;;;;;4997478;28;49045;-64
2022/06/20 14:14:51;;;;;;;;;12.50;11.00;;;;;;;;4989278;28;45782;-64
2022/06/20 14:17:20;;;;;;;;;13.00;10.75;;;;;;;;4971382;28;45976;-64
2022/06/20 14:19:47;;;;;;;;;10.00;9.25;;;;;;;;4973678;28;46040;-64
2022/06/20 14:22:20;;;;;;;;;12.00;10.25;;;;;;;;4973011;28;46230;-65
2022/06/20 14:24:49;;;;;;;;;11.25;11.25;;;;;;;;5004171;28;46073;-65
2022/06/20 14:27:17;;;;;;;;;13.50;11.50;;;;;;;;5004446;28;45592;-64
2022/06/20 14:29:47;;;;;;;;;11.50;11.50;;;;;;;;4973158;28;45451;-64
2022/06/20 14:32:17;;;;;;;;;13.00;10.50;;;;;;;;4971554;28;49026;-65
2022/06/20 14:37:48;;;;;;;;;10.75;10.75;;;;;;;;4973679;28;45789;-65
2022/06/20 14:40:20;;;;;;;;;12.75;11.00;;;;;;;;4973002;28;45797;-65
2022/06/20 14:42:59;;;;;;;;;11.75;11.75;;;;;;;;4997488;28;45922;-66
2022/06/20 14:45:27;;;;;;;;;10.00;10.00;;;;;;;;4965824;28;45784;-65
2022/06/20 14:48:16;;;;;;;;;12.00;11.00;;;;;;;;4973079;28;45775;-65
2022/06/20 14:50:44;;;;;;;;;10.00;10.00;;;;;;;;4959831;28;45739;-65
2022/06/20 14:53:12;;;;;;;;;10.25;9.50;;;;;;;;4972695;28;45750;-65
2022/06/20 14:55:54;;;;;;;;;8.25;8.25;;;;;;;;4973106;28;45546;-65